Aérodrome :







RETROUVEZ-NOUS SUR...

 
LOGIN :

S'inscrire | Disclaimer

   EN    FR    IT 

 









Légende :    VFR   VFR Marginal   IFR   IFR Intensif   IFR Très Intensif
Visi : 
Plafond : 
>= 8 km
>= 3000ft
5 à 8 km
1000 à 3000 ft
1500m à 5 km
500 à 1000 ft
800 à 1500m
200 à 500 ft
< 800m
< 200 ft
Symboles :   Orages  Brouillard  Fortes neiges  Fortes précipitations  Vent > 20 kt






- Altitude de l'aérodrome : 1270 ft
- Code IATA : YMT


CYMT - Chapais

DERNIER METAR :
  • 312000Z AUTO 27008G17KT 240V310 9SM FEW038 BKN055 BKN072 OVC110 05/M00 A3000 RMK SLP179

METARs EXPIRÉS :
  • 311932Z AUTO 29012G19KT 270V330 9SM FEW029 BKN040 BKN055 BKN071 05/M01 A3000 RMK SLP178
  • 311911Z AUTO 29013G22KT 9SM -UP BKN039 OVC049 04/M01 A3001 RMK SLP181
  • 311908Z AUTO 29012G20KT 9SM -RA -UP BKN039 OVC046 04/M01 A3000 RMK SLP180
  • 311854Z AUTO 27014G22KT 250V320 5SM HZ BKN043 BKN065 BKN086 05/M03 A3000 RMK SLP177
  • 311800Z AUTO 29014G22KT 250V330 9SM BKN046 OVC060 05/M04 A3000 RMK SLP177

TAF TAF CYMT
Valide du 31 à 18h jusqu'au 01 à 00h UTC


311734Z 3118/3124 30010G20KT P6SM BKN050
TEMPO 3118/3124 P6SM -SHRA BKN030 RMK FCST BASED ON AUTO OBS. NXT FCST WILL BE ISSUED AT 011145Z
FIR CZUL / Amérique du Nord



MET'MAP, la Météo Aéronautique d'un coup d'oeil ! - Copyright ORBIFLY Décembre 2007 - Disclaimer

ORBIFLY MET'MAP TEAM :

Programmation & Développement : Alexandra Zaïnal
Sur une idée originale de : Baudouin d'Aumeries
Assistance à la programmation : Marc-Olivier Méhu
Soutien technique & logistique : Manuel Goepfert

Contact : metmap@orbifly.com




SOURCES & CREDITS :

   NOAA